createdAt,value
2022-11-12T00:01:51.708Z,3.33
2022-11-12T00:04:38.640Z,3.60
2022-11-12T00:07:25.433Z,3.73
2022-11-12T00:10:12.251Z,3.67
2022-11-12T00:12:59.600Z,3.30
2022-11-12T00:15:46.902Z,3.10
2022-11-12T00:18:33.772Z,2.67
2022-11-12T00:21:20.780Z,2.87
2022-11-12T00:24:07.529Z,2.73
2022-11-12T00:26:54.423Z,3.00
2022-11-12T00:29:41.350Z,3.17
2022-11-12T00:32:28.191Z,2.73
2022-11-12T00:35:15.301Z,3.20
2022-11-12T00:38:02.125Z,2.30
2022-11-12T00:40:48.851Z,3.90
2022-11-12T00:43:35.768Z,5.37
2022-11-12T00:46:22.520Z,2.33
2022-11-12T00:49:09.295Z,3.00
2022-11-12T00:51:56.167Z,3.03
2022-11-12T00:54:43.114Z,2.13
2022-11-12T00:57:30.097Z,1.30
2022-11-12T01:00:18.260Z,1.20
2022-11-12T01:03:05.181Z,1.77
2022-11-12T01:05:52.003Z,1.50
2022-11-12T01:08:38.853Z,1.70
2022-11-12T01:11:29.922Z,1.77
2022-11-12T01:14:16.860Z,1.30
2022-11-12T01:17:03.680Z,1.60
2022-11-12T01:19:50.770Z,1.80
2022-11-12T01:22:37.450Z,1.13
2022-11-12T01:25:24.320Z,1.70
2022-11-12T01:28:11.213Z,1.53
2022-11-12T01:30:58.260Z,1.10
2022-11-12T01:33:46.920Z,1.47
2022-11-12T01:36:35.436Z,1.33
2022-11-12T01:39:22.054Z,1.30
2022-11-12T01:42:09.050Z,1.43
2022-11-12T01:44:56.045Z,1.47
2022-11-12T01:47:43.260Z,1.53
2022-11-12T01:50:32.560Z,1.30
2022-11-12T01:53:19.631Z,1.17
2022-11-12T01:56:07.000Z,1.40
2022-11-12T01:59:27.710Z,1.37
2022-11-12T02:02:14.280Z,1.60
2022-11-12T02:05:01.247Z,1.07
2022-11-12T02:07:48.083Z,1.13
2022-11-12T02:10:35.432Z,1.27
2022-11-12T02:13:40.610Z,1.20
2022-11-12T02:16:36.625Z,1.60
2022-11-12T02:19:23.580Z,1.00
2022-11-12T02:22:10.449Z,1.17
2022-11-12T02:24:57.240Z,1.27
2022-11-12T02:27:44.410Z,1.10
2022-11-12T02:30:43.201Z,1.80
2022-11-12T02:33:30.126Z,2.17
2022-11-12T02:36:17.029Z,1.80
2022-11-12T02:39:04.277Z,1.57
2022-11-12T02:41:50.966Z,1.53
2022-11-12T02:44:37.860Z,1.40
2022-11-12T02:47:24.820Z,1.30
2022-11-12T02:50:12.454Z,1.20
2022-11-12T02:52:59.177Z,1.37
2022-11-12T02:55:46.216Z,3.03
2022-11-12T02:58:33.000Z,1.30
2022-11-12T03:01:20.096Z,1.30
2022-11-12T03:04:07.031Z,1.30
2022-11-12T03:06:53.873Z,1.00
2022-11-12T03:09:40.774Z,1.03
2022-11-12T03:12:27.791Z,1.17
2022-11-12T03:15:14.559Z,1.37
2022-11-12T03:18:01.551Z,1.30
2022-11-12T03:20:52.058Z,1.77
2022-11-12T03:23:38.889Z,1.30
2022-11-12T03:26:25.808Z,1.23
2022-11-12T03:29:12.621Z,1.03
2022-11-12T03:31:59.639Z,1.37
2022-11-12T03:34:46.271Z,1.10
2022-11-12T03:37:33.299Z,1.33
2022-11-12T03:40:20.361Z,3.00
2022-11-12T03:43:07.180Z,1.57
2022-11-12T03:45:54.139Z,3.50
2022-11-12T03:48:41.263Z,1.87
2022-11-12T03:51:27.878Z,1.20
2022-11-12T03:54:14.839Z,0.97
2022-11-12T03:57:01.777Z,1.40
2022-11-12T03:59:48.719Z,2.10
2022-11-12T04:02:35.581Z,1.77
2022-11-12T04:05:41.366Z,1.90
2022-11-12T04:08:37.184Z,1.40
2022-11-12T04:11:23.990Z,1.53
2022-11-12T04:14:11.090Z,1.67
2022-11-12T04:17:16.041Z,1.50
2022-11-12T04:20:28.832Z,1.57
2022-11-12T04:23:15.698Z,1.33
2022-11-12T04:26:20.758Z,1.50
2022-11-12T04:29:25.992Z,1.40
2022-11-12T04:32:13.202Z,0.97
2022-11-12T04:35:00.080Z,1.03
2022-11-12T04:37:47.200Z,1.03
2022-11-12T04:40:52.378Z,0.90
2022-11-12T04:43:57.607Z,1.27
2022-11-12T04:46:44.580Z,1.17
2022-11-12T04:49:31.453Z,1.20
2022-11-12T04:52:18.474Z,1.53
2022-11-12T04:55:05.918Z,1.53
2022-11-12T04:57:56.192Z,1.40
2022-11-12T05:00:47.761Z,1.73
2022-11-12T05:03:34.322Z,1.70
2022-11-12T05:06:39.786Z,1.60
2022-11-12T05:09:27.810Z,1.40
2022-11-12T05:12:14.560Z,1.60
2022-11-12T05:15:01.504Z,1.10
2022-11-12T05:17:48.242Z,1.57
2022-11-12T05:20:36.118Z,1.50
2022-11-12T05:23:22.939Z,1.30
2022-11-12T05:26:09.869Z,1.70
2022-11-12T05:28:56.818Z,1.50
2022-11-12T05:31:43.789Z,2.10
2022-11-12T05:34:30.427Z,1.90
2022-11-12T05:37:17.586Z,1.47
2022-11-12T05:40:04.574Z,1.63
2022-11-12T05:42:51.242Z,1.80
2022-11-12T05:45:37.843Z,1.50
2022-11-12T05:48:24.977Z,2.80
2022-11-12T05:51:14.342Z,1.93
2022-11-12T05:54:01.591Z,1.83
2022-11-12T05:56:48.489Z,1.50
2022-11-12T05:59:35.299Z,1.50
2022-11-12T06:02:22.294Z,2.07
2022-11-12T06:05:09.610Z,3.73
2022-11-12T06:07:56.573Z,3.70
2022-11-12T06:10:43.506Z,3.93
2022-11-12T06:13:30.294Z,4.93
2022-11-12T06:16:17.135Z,8.53
2022-11-12T06:19:03.927Z,9.23
2022-11-12T06:21:50.797Z,10.67
2022-11-12T06:24:37.863Z,10.73
2022-11-12T06:27:24.845Z,11.93
2022-11-12T06:30:11.774Z,14.27
2022-11-12T06:32:58.514Z,11.13
2022-11-12T06:35:45.533Z,8.60
2022-11-12T06:38:37.686Z,9.30
2022-11-12T06:41:24.393Z,5.23
2022-11-12T06:44:11.544Z,5.43
2022-11-12T06:46:58.368Z,4.23
2022-11-12T06:49:45.106Z,5.67
2022-11-12T06:52:32.128Z,5.33
2022-11-12T06:55:19.222Z,5.40
2022-11-12T06:58:06.101Z,5.43
2022-11-12T07:00:53.079Z,5.23
2022-11-12T07:03:40.877Z,5.27
2022-11-12T07:06:27.704Z,5.67
2022-11-12T07:09:14.670Z,6.27
2022-11-12T07:12:01.688Z,5.60
2022-11-12T07:14:48.748Z,6.07
2022-11-12T07:17:35.385Z,6.70
2022-11-12T07:20:22.463Z,7.40
2022-11-12T07:23:09.043Z,7.60
2022-11-12T07:26:03.769Z,5.97
2022-11-12T07:28:51.586Z,4.93
2022-11-12T07:31:38.266Z,5.43
2022-11-12T07:34:25.027Z,4.00
2022-11-12T07:37:12.026Z,4.13
2022-11-12T07:40:00.368Z,4.20
2022-11-12T07:42:47.452Z,3.97
2022-11-12T07:45:34.065Z,4.80
2022-11-12T07:48:21.002Z,4.33
2022-11-12T07:51:12.084Z,5.47
2022-11-12T07:54:00.252Z,4.33
2022-11-12T07:56:47.354Z,5.37
2022-11-12T07:59:34.323Z,5.23
2022-11-12T08:02:21.153Z,4.33
2022-11-12T08:05:14.423Z,4.80
2022-11-12T08:08:04.690Z,3.57
2022-11-12T08:10:55.787Z,5.60
2022-11-12T08:13:42.525Z,3.50
2022-11-12T08:16:30.084Z,3.80
2022-11-12T08:19:16.791Z,4.13
2022-11-12T08:22:03.865Z,4.33
2022-11-12T08:24:50.473Z,3.60
2022-11-12T08:27:37.524Z,3.63
2022-11-12T08:30:24.683Z,3.53
2022-11-12T08:33:11.316Z,4.07
2022-11-12T08:35:58.916Z,3.73
2022-11-12T08:38:45.868Z,3.23
2022-11-12T08:41:33.777Z,3.63
2022-11-12T08:44:20.843Z,4.23
2022-11-12T08:47:07.437Z,3.93
2022-11-12T08:49:54.583Z,4.17
2022-11-12T08:52:41.143Z,3.80
2022-11-12T08:55:28.633Z,4.23
2022-11-12T08:58:15.493Z,4.63
2022-11-12T09:01:06.718Z,5.23
2022-11-12T09:03:53.545Z,4.83
2022-11-12T09:06:40.452Z,5.67
2022-11-12T09:09:27.626Z,5.00
2022-11-12T09:12:19.782Z,5.27
2022-11-12T09:15:36.202Z,5.37
2022-11-12T09:18:16.033Z,4.00
2022-11-12T09:21:07.944Z,5.23
2022-11-12T09:23:55.885Z,4.07
2022-11-12T09:26:44.845Z,4.50
2022-11-12T09:29:31.806Z,3.97
2022-11-12T09:32:18.984Z,2.53
2022-11-12T09:35:06.326Z,2.97
2022-11-12T09:37:53.636Z,2.20
2022-11-12T09:40:51.218Z,2.40
2022-11-12T09:43:41.259Z,2.63
2022-11-12T09:46:40.001Z,3.47
2022-11-12T09:49:31.497Z,4.83
2022-11-12T09:52:26.834Z,3.03
2022-11-12T09:55:37.608Z,3.57
2022-11-12T09:58:25.458Z,2.60
2022-11-12T10:01:38.204Z,2.67
2022-11-12T10:04:37.218Z,4.30
2022-11-12T10:07:42.639Z,4.50
2022-11-12T10:10:45.206Z,3.00
2022-11-12T10:14:01.166Z,3.00
2022-11-12T10:17:04.545Z,3.90
2022-11-12T10:20:07.022Z,2.57
2022-11-12T10:23:05.585Z,2.30
2022-11-12T10:25:53.550Z,3.23
2022-11-12T10:29:03.404Z,2.80
2022-11-12T10:31:50.784Z,2.07
2022-11-12T10:34:38.569Z,2.27
2022-11-12T10:37:42.784Z,1.70
2022-11-12T10:40:37.418Z,2.70
2022-11-12T10:43:25.016Z,2.00
2022-11-12T10:46:19.916Z,2.53
2022-11-12T10:49:16.735Z,2.40
2022-11-12T10:52:03.869Z,2.20
2022-11-12T10:54:54.978Z,2.47
2022-11-12T10:57:41.899Z,2.60
2022-11-12T11:00:28.992Z,1.80
2022-11-12T11:03:24.225Z,2.07
2022-11-12T11:06:23.948Z,2.60
2022-11-12T11:09:13.562Z,3.20
2022-11-12T11:12:02.250Z,2.67
2022-11-12T11:14:49.099Z,2.37
2022-11-12T11:17:35.974Z,2.80
2022-11-12T11:20:26.953Z,1.77
2022-11-12T11:23:26.725Z,1.83
2022-11-12T11:26:55.108Z,2.23
2022-11-12T11:30:06.422Z,2.37
2022-11-12T11:33:21.256Z,2.70
2022-11-12T11:36:17.216Z,10.87
2022-11-12T11:39:26.286Z,9.60
2022-11-12T11:42:19.016Z,3.47
2022-11-12T11:45:16.210Z,2.00
2022-11-12T11:48:25.180Z,1.80
2022-11-12T11:51:47.230Z,2.17
2022-11-12T11:54:39.961Z,30.07
2022-11-12T11:57:36.384Z,6.30
2022-11-12T12:00:24.485Z,1.73
2022-11-12T12:03:11.540Z,2.40
2022-11-12T12:06:09.292Z,2.37
2022-11-12T12:09:16.506Z,2.37
2022-11-12T12:12:08.855Z,1.73
2022-11-12T12:15:27.774Z,2.30
2022-11-12T12:18:37.969Z,2.13
2022-11-12T12:21:27.062Z,2.40
2022-11-12T12:24:23.471Z,2.53
2022-11-12T12:27:25.699Z,2.60
2022-11-12T12:30:23.025Z,2.87
2022-11-12T12:33:53.773Z,2.27
2022-11-12T12:36:44.636Z,3.00
2022-11-12T12:39:52.806Z,2.40
2022-11-12T12:42:45.407Z,2.10
2022-11-12T12:45:45.870Z,2.27
2022-11-12T12:48:39.175Z,2.40
2022-11-12T12:51:28.483Z,2.70
2022-11-12T12:54:35.055Z,2.70
2022-11-12T12:57:32.305Z,2.90
2022-11-12T13:00:32.133Z,3.30
2022-11-12T13:03:46.575Z,13.13
2022-11-12T13:06:46.391Z,29.87
2022-11-12T13:09:33.587Z,17.30
2022-11-12T13:12:20.542Z,17.77
2022-11-12T13:15:16.078Z,9.50
2022-11-12T13:18:02.977Z,5.73
2022-11-12T13:21:16.182Z,3.80
2022-11-12T13:24:11.307Z,3.73
2022-11-12T13:27:01.373Z,6.73
2022-11-12T13:29:49.383Z,5.10
2022-11-12T13:32:48.578Z,4.07
2022-11-12T13:35:39.758Z,4.60
2022-11-12T13:38:26.818Z,4.20
2022-11-12T13:41:18.456Z,4.80
2022-11-12T13:44:07.005Z,4.00
2022-11-12T13:46:56.184Z,3.07
2022-11-12T13:49:44.313Z,3.40
2022-11-12T13:52:31.635Z,3.17
2022-11-12T13:55:20.204Z,3.40
2022-11-12T13:58:07.723Z,2.83
2022-11-12T14:00:59.974Z,2.77
2022-11-12T14:03:49.113Z,3.20
2022-11-12T14:06:39.314Z,4.20
2022-11-12T14:09:34.516Z,3.70
2022-11-12T14:12:38.851Z,4.50
2022-11-12T14:16:11.791Z,6.07
2022-11-12T14:19:29.911Z,9.73
2022-11-12T14:22:22.738Z,12.23
2022-11-12T14:25:16.919Z,8.47
2022-11-12T14:28:05.699Z,9.50
2022-11-12T14:30:52.221Z,5.67
2022-11-12T14:33:39.173Z,5.10
2022-11-12T14:36:27.968Z,6.27
2022-11-12T14:39:15.129Z,6.27
2022-11-12T14:42:01.960Z,8.07
2022-11-12T14:44:48.659Z,11.63
2022-11-12T14:47:36.731Z,8.23
2022-11-12T14:50:37.395Z,6.27
2022-11-12T14:53:30.919Z,11.10
2022-11-12T14:56:35.623Z,13.60
2022-11-12T14:59:22.778Z,9.60
2022-11-12T15:05:24.780Z,6.57
2022-11-12T15:08:12.013Z,6.37
2022-11-12T15:11:28.173Z,6.93
2022-11-12T15:14:22.599Z,7.17
2022-11-12T15:17:36.274Z,7.23
2022-11-12T15:20:23.061Z,6.80
2022-11-12T15:23:20.753Z,7.33
2022-11-12T15:26:15.499Z,8.83
2022-11-12T15:29:12.207Z,8.33
2022-11-12T15:32:06.703Z,8.67
2022-11-12T15:34:57.188Z,9.73
2022-11-12T15:37:45.248Z,7.60
2022-11-12T15:40:34.351Z,8.00
2022-11-12T15:43:28.442Z,7.27
2022-11-12T15:46:16.960Z,6.70
2022-11-12T15:49:04.078Z,6.97
2022-11-12T15:51:51.118Z,7.07
2022-11-12T15:54:41.170Z,7.27
2022-11-12T15:57:31.123Z,6.70
2022-11-12T16:00:21.715Z,6.40
2022-11-12T16:03:13.658Z,6.43
2022-11-12T16:06:05.665Z,6.57
2022-11-12T16:09:05.109Z,5.57
2022-11-12T16:11:58.648Z,5.90
2022-11-12T16:14:46.725Z,6.77
2022-11-12T16:17:33.808Z,5.97
2022-11-12T16:20:28.986Z,6.10
2022-11-12T16:23:19.911Z,5.03
2022-11-12T16:26:10.854Z,4.60
2022-11-12T16:29:03.986Z,4.57
2022-11-12T16:31:53.149Z,4.93
2022-11-12T16:34:40.344Z,5.30
2022-11-12T16:37:27.591Z,5.67
2022-11-12T16:40:17.535Z,5.33
2022-11-12T16:43:09.704Z,6.13
2022-11-12T16:46:00.453Z,9.83
2022-11-12T16:48:47.758Z,10.33
2022-11-12T16:51:35.593Z,12.07
2022-11-12T16:54:24.670Z,14.93
2022-11-12T16:57:11.433Z,15.03
2022-11-12T16:59:58.396Z,8.90
2022-11-12T17:02:48.328Z,8.37
2022-11-12T17:05:39.204Z,9.10
2022-11-12T17:08:33.979Z,9.13
2022-11-12T17:11:21.364Z,10.00
2022-11-12T17:14:09.324Z,10.07
2022-11-12T17:16:56.653Z,12.03
2022-11-12T17:19:43.294Z,10.47
2022-11-12T17:22:32.803Z,9.13
2022-11-12T17:25:19.976Z,10.07
2022-11-12T17:28:07.432Z,9.23
2022-11-12T17:31:04.360Z,8.57
2022-11-12T17:33:52.207Z,7.73
2022-11-12T17:36:43.312Z,7.20
2022-11-12T17:39:31.953Z,6.90
2022-11-12T17:42:19.673Z,7.93
2022-11-12T17:45:14.914Z,6.70
2022-11-12T17:48:02.659Z,6.60
2022-11-12T17:50:55.819Z,6.00
2022-11-12T17:53:43.382Z,6.50
2022-11-12T17:56:36.691Z,7.23
2022-11-12T17:59:26.238Z,9.23
2022-11-12T18:02:14.194Z,6.50
2022-11-12T18:05:00.898Z,6.60
2022-11-12T18:07:49.330Z,6.50
2022-11-12T18:10:37.198Z,5.93
2022-11-12T18:13:24.464Z,5.00
2022-11-12T18:16:22.818Z,4.57
2022-11-12T18:19:11.323Z,4.37
2022-11-12T18:22:00.052Z,4.77
2022-11-12T18:24:51.023Z,3.77
2022-11-12T18:27:37.987Z,3.97
2022-11-12T18:30:28.496Z,3.80
2022-11-12T18:33:15.334Z,7.70
2022-11-12T18:36:10.981Z,12.77
2022-11-12T18:38:57.798Z,14.87
2022-11-12T18:41:45.394Z,12.37
2022-11-12T18:44:32.646Z,10.67
2022-11-12T18:47:19.721Z,9.50
2022-11-12T18:50:08.826Z,9.57
2022-11-12T18:53:01.142Z,9.30
2022-11-12T18:55:58.756Z,8.70
2022-11-12T18:58:45.444Z,8.27
2022-11-12T19:01:32.214Z,8.53
2022-11-12T19:04:19.231Z,8.40
2022-11-12T19:07:06.201Z,8.77
2022-11-12T19:09:55.084Z,11.50
2022-11-12T19:12:42.793Z,10.57
2022-11-12T19:15:34.289Z,10.17
2022-11-12T19:18:24.671Z,9.60
2022-11-12T19:21:24.166Z,9.23
2022-11-12T19:24:10.885Z,8.97
2022-11-12T19:26:58.241Z,7.93
2022-11-12T19:29:50.634Z,8.20
2022-11-12T19:32:37.371Z,8.90
2022-11-12T19:35:24.112Z,9.63
2022-11-12T19:38:11.492Z,8.90
2022-11-12T19:41:05.571Z,8.13
2022-11-12T19:43:54.152Z,8.40
2022-11-12T19:46:42.376Z,9.10
2022-11-12T19:49:29.406Z,9.23
2022-11-12T19:52:16.948Z,9.20
2022-11-12T19:55:03.820Z,8.67
2022-11-12T19:57:51.155Z,10.10
2022-11-12T20:00:37.925Z,12.37
2022-11-12T20:03:26.646Z,10.90
2022-11-12T20:06:15.551Z,10.63
2022-11-12T20:09:04.249Z,11.33
2022-11-12T20:11:54.482Z,11.60
2022-11-12T20:14:41.492Z,11.57
2022-11-12T20:17:28.418Z,11.37
2022-11-12T20:20:15.382Z,12.63
2022-11-12T20:23:06.300Z,12.40
2022-11-12T20:25:52.952Z,10.57
2022-11-12T20:28:41.666Z,11.37
2022-11-12T20:31:28.605Z,12.40
2022-11-12T20:34:15.486Z,12.43
2022-11-12T20:37:04.056Z,11.47
2022-11-12T20:39:50.674Z,10.43
2022-11-12T20:42:37.604Z,10.00
2022-11-12T20:45:25.402Z,9.90
2022-11-12T20:48:12.446Z,9.57
2022-11-12T20:51:25.618Z,9.43
2022-11-12T20:54:12.793Z,9.77
2022-11-12T20:57:01.589Z,10.53
2022-11-12T20:59:51.405Z,10.70
2022-11-12T21:02:40.496Z,11.30
2022-11-12T21:05:29.517Z,10.47
2022-11-12T21:08:16.222Z,9.93
2022-11-12T21:11:07.386Z,9.23
2022-11-12T21:13:53.904Z,9.33
2022-11-12T21:16:41.031Z,10.20
2022-11-12T21:19:27.750Z,8.83
2022-11-12T21:22:15.762Z,10.03
2022-11-12T21:25:02.492Z,8.63
2022-11-12T21:27:49.260Z,8.27
2022-11-12T21:30:36.278Z,39.27
2022-11-12T21:33:23.074Z,11.27
2022-11-12T21:36:15.869Z,7.90
2022-11-12T21:39:04.288Z,7.70
2022-11-12T21:41:52.139Z,7.57
2022-11-12T21:44:39.088Z,7.53
2022-11-12T21:47:26.063Z,7.47
2022-11-12T21:50:13.325Z,6.47
2022-11-12T21:53:00.087Z,7.57
2022-11-12T21:55:47.015Z,7.03
2022-11-12T21:58:33.840Z,7.47
2022-11-12T22:01:22.118Z,6.40
2022-11-12T22:04:10.873Z,6.63
2022-11-12T22:06:59.594Z,6.23
2022-11-12T22:09:46.542Z,6.17
2022-11-12T22:12:33.438Z,5.70
2022-11-12T22:15:24.330Z,6.60
2022-11-12T22:18:11.251Z,5.50
2022-11-12T22:21:03.330Z,5.27
2022-11-12T22:23:50.478Z,6.13
2022-11-12T22:26:37.337Z,5.00
2022-11-12T22:29:24.321Z,4.67
2022-11-12T22:32:11.216Z,5.43
2022-11-12T22:34:58.262Z,5.70
2022-11-12T22:37:45.148Z,4.47
2022-11-12T22:40:31.942Z,4.27
2022-11-12T22:43:18.817Z,4.47
2022-11-12T22:46:06.560Z,4.10
2022-11-12T22:48:53.535Z,4.43
2022-11-12T22:51:40.341Z,3.53
2022-11-12T22:54:27.326Z,5.17
2022-11-12T22:57:13.988Z,4.37
2022-11-12T23:00:00.710Z,4.23
2022-11-12T23:02:47.913Z,4.27
2022-11-12T23:05:34.748Z,3.63
2022-11-12T23:08:21.298Z,3.93
2022-11-12T23:11:16.659Z,3.80
2022-11-12T23:14:03.281Z,3.17
2022-11-12T23:16:50.347Z,3.63
2022-11-12T23:19:37.168Z,3.47
2022-11-12T23:22:24.358Z,2.47
2022-11-12T23:25:11.018Z,2.77
2022-11-12T23:27:57.947Z,3.73
2022-11-12T23:30:49.430Z,3.27
2022-11-12T23:33:36.439Z,3.17
2022-11-12T23:36:24.288Z,3.33
2022-11-12T23:39:11.041Z,2.50
2022-11-12T23:41:57.471Z,4.07
2022-11-12T23:44:45.634Z,4.77
2022-11-12T23:47:32.435Z,7.60
2022-11-12T23:50:19.288Z,4.97
2022-11-12T23:53:06.414Z,5.83
2022-11-12T23:55:53.500Z,5.07
2022-11-12T23:58:40.834Z,4.73
